sensor_id;sensor_type;location;lat;lon;timestamp;temperature;humidity
27226;DHT22;14732;51.074;3.788;2022-12-01T00:00:41;6.20;99.90
27226;DHT22;14732;51.074;3.788;2022-12-01T00:03:07;6.20;99.90
27226;DHT22;14732;51.074;3.788;2022-12-01T00:05:34;6.10;99.90
27226;DHT22;14732;51.074;3.788;2022-12-01T00:08:00;6.00;99.90
27226;DHT22;14732;51.074;3.788;2022-12-01T00:10:26;6.00;99.90
27226;DHT22;14732;51.074;3.788;2022-12-01T00:13:01;6.00;99.90
27226;DHT22;14732;51.074;3.788;2022-12-01T00:15:35;6.00;99.90
27226;DHT22;14732;51.074;3.788;2022-12-01T00:18:03;5.90;99.90
27226;DHT22;14732;51.074;3.788;2022-12-01T00:20:32;5.90;99.90
27226;DHT22;14732;51.074;3.788;2022-12-01T00:22:57;5.90;99.90
27226;DHT22;14732;51.074;3.788;2022-12-01T00:25:23;5.80;99.90
27226;DHT22;14732;51.074;3.788;2022-12-01T00:27:50;5.90;99.90
27226;DHT22;14732;51.074;3.788;2022-12-01T00:30:18;5.80;99.90
27226;DHT22;14732;51.074;3.788;2022-12-01T00:32:45;5.70;99.90
27226;DHT22;14732;51.074;3.788;2022-12-01T00:35:12;5.70;99.90
27226;DHT22;14732;51.074;3.788;2022-12-01T00:37:37;5.70;99.90
27226;DHT22;14732;51.074;3.788;2022-12-01T00:40:04;5.60;99.90
27226;DHT22;14732;51.074;3.788;2022-12-01T00:42:30;5.60;99.90
27226;DHT22;14732;51.074;3.788;2022-12-01T00:44:56;5.60;99.90
27226;DHT22;14732;51.074;3.788;2022-12-01T00:47:21;5.70;99.90
27226;DHT22;14732;51.074;3.788;2022-12-01T00:49:47;5.60;99.90
27226;DHT22;14732;51.074;3.788;2022-12-01T00:52:14;5.60;99.90
27226;DHT22;14732;51.074;3.788;2022-12-01T00:54:40;5.60;99.90
27226;DHT22;14732;51.074;3.788;2022-12-01T00:57:06;5.60;99.90
27226;DHT22;14732;51.074;3.788;2022-12-01T00:59:32;5.60;99.90
27226;DHT22;14732;51.074;3.788;2022-12-01T01:01:59;5.50;99.90
27226;DHT22;14732;51.074;3.788;2022-12-01T01:04:24;5.50;99.90
27226;DHT22;14732;51.074;3.788;2022-12-01T01:06:50;5.40;99.90
27226;DHT22;14732;51.074;3.788;2022-12-01T01:09:16;5.40;99.90
27226;DHT22;14732;51.074;3.788;2022-12-01T01:11:42;5.40;99.90
27226;DHT22;14732;51.074;3.788;2022-12-01T01:14:08;5.40;99.90
27226;DHT22;14732;51.074;3.788;2022-12-01T01:16:33;5.40;99.90
27226;DHT22;14732;51.074;3.788;2022-12-01T01:18:59;5.30;99.90
27226;DHT22;14732;51.074;3.788;2022-12-01T01:21:26;5.20;99.90
27226;DHT22;14732;51.074;3.788;2022-12-01T01:23:53;5.20;99.90
27226;DHT22;14732;51.074;3.788;2022-12-01T01:26:27;5.20;99.90
27226;DHT22;14732;51.074;3.788;2022-12-01T01:28:56;5.10;99.90
27226;DHT22;14732;51.074;3.788;2022-12-01T01:31:23;5.20;99.90
27226;DHT22;14732;51.074;3.788;2022-12-01T01:33:49;5.30;99.90
27226;DHT22;14732;51.074;3.788;2022-12-01T01:36:16;5.20;99.90
27226;DHT22;14732;51.074;3.788;2022-12-01T01:38:42;5.20;99.90
27226;DHT22;14732;51.074;3.788;2022-12-01T01:41:08;5.30;99.90
27226;DHT22;14732;51.074;3.788;2022-12-01T01:49:05;5.50;99.90
27226;DHT22;14732;51.074;3.788;2022-12-01T01:51:39;5.60;99.90
27226;DHT22;14732;51.074;3.788;2022-12-01T01:54:13;5.70;99.90
27226;DHT22;14732;51.074;3.788;2022-12-01T01:56:44;5.60;99.90
27226;DHT22;14732;51.074;3.788;2022-12-01T01:59:11;5.60;99.90
27226;DHT22;14732;51.074;3.788;2022-12-01T02:01:38;5.80;99.90
27226;DHT22;14732;51.074;3.788;2022-12-01T02:04:03;5.80;99.90
27226;DHT22;14732;51.074;3.788;2022-12-01T02:06:29;5.90;99.90
27226;DHT22;14732;51.074;3.788;2022-12-01T02:08:55;5.90;99.90
27226;DHT22;14732;51.074;3.788;2022-12-01T02:11:31;5.80;99.90
27226;DHT22;14732;51.074;3.788;2022-12-01T02:28:12;6.20;99.90
27226;DHT22;14732;51.074;3.788;2022-12-01T02:30:59;6.20;99.90
27226;DHT22;14732;51.074;3.788;2022-12-01T02:38:44;6.20;99.90
27226;DHT22;14732;51.074;3.788;2022-12-01T02:41:29;6.20;99.90
27226;DHT22;14732;51.074;3.788;2022-12-01T02:44:18;6.30;99.90
27226;DHT22;14732;51.074;3.788;2022-12-01T02:46:56;6.40;99.90
27226;DHT22;14732;51.074;3.788;2022-12-01T02:49:33;6.40;99.90
27226;DHT22;14732;51.074;3.788;2022-12-01T02:52:03;6.40;99.90
27226;DHT22;14732;51.074;3.788;2022-12-01T02:54:30;6.30;99.90
27226;DHT22;14732;51.074;3.788;2022-12-01T02:56:56;6.30;99.90
27226;DHT22;14732;51.074;3.788;2022-12-01T02:59:22;6.30;99.90
27226;DHT22;14732;51.074;3.788;2022-12-01T03:07:07;6.60;99.90
27226;DHT22;14732;51.074;3.788;2022-12-01T03:20:45;6.60;99.90
27226;DHT22;14732;51.074;3.788;2022-12-01T03:23:20;6.50;99.90
27226;DHT22;14732;51.074;3.788;2022-12-01T03:25:50;6.50;99.90
27226;DHT22;14732;51.074;3.788;2022-12-01T03:28:21;6.30;99.90
27226;DHT22;14732;51.074;3.788;2022-12-01T03:30:50;6.30;99.90
27226;DHT22;14732;51.074;3.788;2022-12-01T03:33:23;6.20;99.90
27226;DHT22;14732;51.074;3.788;2022-12-01T03:36:19;6.10;99.90
27226;DHT22;14732;51.074;3.788;2022-12-01T03:38:51;6.10;99.90
27226;DHT22;14732;51.074;3.788;2022-12-01T03:41:25;6.10;99.90
27226;DHT22;14732;51.074;3.788;2022-12-01T03:43:56;5.90;99.90
27226;DHT22;14732;51.074;3.788;2022-12-01T03:46:52;6.10;99.90
27226;DHT22;14732;51.074;3.788;2022-12-01T03:49:20;6.10;99.90
27226;DHT22;14732;51.074;3.788;2022-12-01T03:57:08;6.20;99.90
27226;DHT22;14732;51.074;3.788;2022-12-01T03:59:36;6.20;99.90
27226;DHT22;14732;51.074;3.788;2022-12-01T04:02:05;6.10;99.90
27226;DHT22;14732;51.074;3.788;2022-12-01T04:04:31;6.20;99.90
27226;DHT22;14732;51.074;3.788;2022-12-01T04:06:57;6.30;99.90
27226;DHT22;14732;51.074;3.788;2022-12-01T04:09:22;6.30;99.90
27226;DHT22;14732;51.074;3.788;2022-12-01T04:11:48;6.30;99.90
27226;DHT22;14732;51.074;3.788;2022-12-01T04:14:32;6.30;99.90
27226;DHT22;14732;51.074;3.788;2022-12-01T04:16:58;6.40;99.90
27226;DHT22;14732;51.074;3.788;2022-12-01T04:19:23;6.40;99.90
27226;DHT22;14732;51.074;3.788;2022-12-01T04:21:49;6.40;99.90
27226;DHT22;14732;51.074;3.788;2022-12-01T04:24:15;6.60;99.90
27226;DHT22;14732;51.074;3.788;2022-12-01T04:26:40;6.60;99.90
27226;DHT22;14732;51.074;3.788;2022-12-01T04:29:09;6.70;99.90
27226;DHT22;14732;51.074;3.788;2022-12-01T04:31:35;6.80;99.90
27226;DHT22;14732;51.074;3.788;2022-12-01T04:34:01;6.90;99.90
27226;DHT22;14732;51.074;3.788;2022-12-01T04:36:29;6.90;99.90
27226;DHT22;14732;51.074;3.788;2022-12-01T04:38:55;6.80;99.90
27226;DHT22;14732;51.074;3.788;2022-12-01T04:41:21;6.80;99.90
27226;DHT22;14732;51.074;3.788;2022-12-01T04:43:47;6.80;99.90
27226;DHT22;14732;51.074;3.788;2022-12-01T04:46:13;6.60;99.90
27226;DHT22;14732;51.074;3.788;2022-12-01T04:48:39;6.50;99.90
27226;DHT22;14732;51.074;3.788;2022-12-01T04:51:07;6.40;99.90
27226;DHT22;14732;51.074;3.788;2022-12-01T04:53:34;6.40;99.90
27226;DHT22;14732;51.074;3.788;2022-12-01T04:56:00;6.30;99.90
27226;DHT22;14732;51.074;3.788;2022-12-01T04:58:31;6.30;99.90
27226;DHT22;14732;51.074;3.788;2022-12-01T05:01:01;6.20;99.90
27226;DHT22;14732;51.074;3.788;2022-12-01T05:03:27;6.30;99.90
27226;DHT22;14732;51.074;3.788;2022-12-01T05:06:05;6.20;99.90
27226;DHT22;14732;51.074;3.788;2022-12-01T05:08:31;6.10;99.90
27226;DHT22;14732;51.074;3.788;2022-12-01T05:10:56;6.10;99.90
27226;DHT22;14732;51.074;3.788;2022-12-01T05:13:23;6.00;99.90
27226;DHT22;14732;51.074;3.788;2022-12-01T05:15:48;5.90;99.90
27226;DHT22;14732;51.074;3.788;2022-12-01T05:18:14;5.80;99.90
27226;DHT22;14732;51.074;3.788;2022-12-01T05:20:40;5.80;99.90
27226;DHT22;14732;51.074;3.788;2022-12-01T05:23:26;5.70;99.90
27226;DHT22;14732;51.074;3.788;2022-12-01T05:25:52;5.70;99.90
27226;DHT22;14732;51.074;3.788;2022-12-01T05:28:19;5.60;99.90
27226;DHT22;14732;51.074;3.788;2022-12-01T05:30:44;5.50;99.90
27226;DHT22;14732;51.074;3.788;2022-12-01T05:33:10;5.50;99.90
27226;DHT22;14732;51.074;3.788;2022-12-01T05:35:36;5.50;99.90
27226;DHT22;14732;51.074;3.788;2022-12-01T05:38:02;5.50;99.90
27226;DHT22;14732;51.074;3.788;2022-12-01T05:40:29;5.60;99.90
27226;DHT22;14732;51.074;3.788;2022-12-01T05:42:56;5.60;99.90
27226;DHT22;14732;51.074;3.788;2022-12-01T05:45:22;5.60;99.90
27226;DHT22;14732;51.074;3.788;2022-12-01T05:47:47;5.60;99.90
27226;DHT22;14732;51.074;3.788;2022-12-01T05:50:13;5.70;99.90
27226;DHT22;14732;51.074;3.788;2022-12-01T05:52:39;5.70;99.90
27226;DHT22;14732;51.074;3.788;2022-12-01T05:55:06;5.80;99.90
27226;DHT22;14732;51.074;3.788;2022-12-01T05:57:32;5.90;99.90
27226;DHT22;14732;51.074;3.788;2022-12-01T05:59:58;5.90;99.90
27226;DHT22;14732;51.074;3.788;2022-12-01T06:02:24;6.00;99.90
27226;DHT22;14732;51.074;3.788;2022-12-01T06:04:53;6.10;99.90
27226;DHT22;14732;51.074;3.788;2022-12-01T06:07:19;6.20;99.90
27226;DHT22;14732;51.074;3.788;2022-12-01T06:09:45;6.20;99.90
27226;DHT22;14732;51.074;3.788;2022-12-01T06:12:11;6.20;99.90
27226;DHT22;14732;51.074;3.788;2022-12-01T06:14:37;6.30;99.90
27226;DHT22;14732;51.074;3.788;2022-12-01T06:17:03;6.30;99.90
27226;DHT22;14732;51.074;3.788;2022-12-01T06:19:28;6.30;99.90
27226;DHT22;14732;51.074;3.788;2022-12-01T06:21:56;6.40;99.90
27226;DHT22;14732;51.074;3.788;2022-12-01T06:24:21;6.40;99.90
27226;DHT22;14732;51.074;3.788;2022-12-01T06:26:47;6.40;99.90
27226;DHT22;14732;51.074;3.788;2022-12-01T06:29:13;6.50;99.90
27226;DHT22;14732;51.074;3.788;2022-12-01T06:31:38;6.60;99.90
27226;DHT22;14732;51.074;3.788;2022-12-01T06:34:04;6.50;99.90
27226;DHT22;14732;51.074;3.788;2022-12-01T06:36:30;6.50;99.90
27226;DHT22;14732;51.074;3.788;2022-12-01T06:38:55;6.70;99.90
27226;DHT22;14732;51.074;3.788;2022-12-01T06:41:21;6.70;99.90
27226;DHT22;14732;51.074;3.788;2022-12-01T06:43:46;6.60;99.90
27226;DHT22;14732;51.074;3.788;2022-12-01T06:46:12;6.70;99.90
27226;DHT22;14732;51.074;3.788;2022-12-01T06:48:38;6.70;99.90
27226;DHT22;14732;51.074;3.788;2022-12-01T06:51:04;6.70;99.90
27226;DHT22;14732;51.074;3.788;2022-12-01T06:53:29;6.70;99.90
27226;DHT22;14732;51.074;3.788;2022-12-01T06:56:13;6.70;99.90
27226;DHT22;14732;51.074;3.788;2022-12-01T06:58:39;6.80;99.90
27226;DHT22;14732;51.074;3.788;2022-12-01T07:01:09;6.80;99.90
27226;DHT22;14732;51.074;3.788;2022-12-01T07:03:35;6.70;99.90
27226;DHT22;14732;51.074;3.788;2022-12-01T07:06:02;6.70;99.90
27226;DHT22;14732;51.074;3.788;2022-12-01T07:08:29;6.60;99.90
27226;DHT22;14732;51.074;3.788;2022-12-01T07:10:59;6.60;99.90
27226;DHT22;14732;51.074;3.788;2022-12-01T07:13:25;6.70;99.90
27226;DHT22;14732;51.074;3.788;2022-12-01T07:15:50;6.70;99.90
27226;DHT22;14732;51.074;3.788;2022-12-01T07:18:16;6.60;99.90
27226;DHT22;14732;51.074;3.788;2022-12-01T07:20:42;6.50;99.90
27226;DHT22;14732;51.074;3.788;2022-12-01T07:23:07;6.40;99.90
27226;DHT22;14732;51.074;3.788;2022-12-01T07:25:33;6.60;99.90
27226;DHT22;14732;51.074;3.788;2022-12-01T07:27:59;6.60;99.90
27226;DHT22;14732;51.074;3.788;2022-12-01T07:30:24;6.70;99.90
27226;DHT22;14732;51.074;3.788;2022-12-01T07:32:50;6.80;99.90
27226;DHT22;14732;51.074;3.788;2022-12-01T07:35:15;6.90;99.90
27226;DHT22;14732;51.074;3.788;2022-12-01T07:37:41;6.80;99.90
27226;DHT22;14732;51.074;3.788;2022-12-01T07:40:07;6.90;99.90
27226;DHT22;14732;51.074;3.788;2022-12-01T07:42:34;6.90;99.90
27226;DHT22;14732;51.074;3.788;2022-12-01T07:45:00;6.80;99.90
27226;DHT22;14732;51.074;3.788;2022-12-01T07:47:26;6.70;99.90
27226;DHT22;14732;51.074;3.788;2022-12-01T07:49:51;6.70;99.90
27226;DHT22;14732;51.074;3.788;2022-12-01T07:52:17;6.70;99.90
27226;DHT22;14732;51.074;3.788;2022-12-01T07:54:43;6.60;99.90
27226;DHT22;14732;51.074;3.788;2022-12-01T07:57:08;6.60;99.90
27226;DHT22;14732;51.074;3.788;2022-12-01T07:59:34;6.40;99.90
27226;DHT22;14732;51.074;3.788;2022-12-01T08:02:00;6.30;99.90
27226;DHT22;14732;51.074;3.788;2022-12-01T08:04:25;6.30;99.90
27226;DHT22;14732;51.074;3.788;2022-12-01T08:06:51;6.50;99.90
27226;DHT22;14732;51.074;3.788;2022-12-01T08:09:17;6.50;99.90
27226;DHT22;14732;51.074;3.788;2022-12-01T08:11:42;6.60;99.90
27226;DHT22;14732;51.074;3.788;2022-12-01T08:14:08;6.50;99.90
27226;DHT22;14732;51.074;3.788;2022-12-01T08:16:33;6.40;99.90
27226;DHT22;14732;51.074;3.788;2022-12-01T08:18:59;6.50;99.90
27226;DHT22;14732;51.074;3.788;2022-12-01T08:21:25;6.60;99.90
27226;DHT22;14732;51.074;3.788;2022-12-01T08:23:55;6.70;99.90
27226;DHT22;14732;51.074;3.788;2022-12-01T08:26:21;6.60;99.90
27226;DHT22;14732;51.074;3.788;2022-12-01T08:28:48;6.50;99.90
27226;DHT22;14732;51.074;3.788;2022-12-01T08:31:18;6.60;99.90
27226;DHT22;14732;51.074;3.788;2022-12-01T08:33:45;6.70;99.90
27226;DHT22;14732;51.074;3.788;2022-12-01T08:36:11;6.80;99.90
27226;DHT22;14732;51.074;3.788;2022-12-01T08:38:37;6.90;99.90
27226;DHT22;14732;51.074;3.788;2022-12-01T08:41:06;7.10;99.90
27226;DHT22;14732;51.074;3.788;2022-12-01T08:43:32;7.20;99.90
27226;DHT22;14732;51.074;3.788;2022-12-01T08:45:59;7.20;99.90
27226;DHT22;14732;51.074;3.788;2022-12-01T08:48:25;7.30;99.90
27226;DHT22;14732;51.074;3.788;2022-12-01T08:51:01;7.30;99.90
27226;DHT22;14732;51.074;3.788;2022-12-01T08:53:26;7.20;99.90
27226;DHT22;14732;51.074;3.788;2022-12-01T08:55:52;7.10;99.90
27226;DHT22;14732;51.074;3.788;2022-12-01T08:58:18;7.20;99.90
27226;DHT22;14732;51.074;3.788;2022-12-01T09:00:43;7.30;99.90
27226;DHT22;14732;51.074;3.788;2022-12-01T09:03:09;7.20;99.90
27226;DHT22;14732;51.074;3.788;2022-12-01T09:05:35;7.10;99.90
27226;DHT22;14732;51.074;3.788;2022-12-01T09:08:00;7.00;99.90
27226;DHT22;14732;51.074;3.788;2022-12-01T09:10:52;7.00;99.90
27226;DHT22;14732;51.074;3.788;2022-12-01T09:13:17;7.20;99.90
27226;DHT22;14732;51.074;3.788;2022-12-01T09:15:43;7.10;99.90
27226;DHT22;14732;51.074;3.788;2022-12-01T09:18:09;7.20;99.90
27226;DHT22;14732;51.074;3.788;2022-12-01T09:20:34;7.60;99.90
27226;DHT22;14732;51.074;3.788;2022-12-01T09:23:00;8.70;99.90
27226;DHT22;14732;51.074;3.788;2022-12-01T09:25:25;9.90;99.90
27226;DHT22;14732;51.074;3.788;2022-12-01T09:27:51;10.50;99.90
27226;DHT22;14732;51.074;3.788;2022-12-01T09:30:17;10.20;99.90
27226;DHT22;14732;51.074;3.788;2022-12-01T09:32:42;9.50;99.90
27226;DHT22;14732;51.074;3.788;2022-12-01T09:35:08;8.90;99.90
27226;DHT22;14732;51.074;3.788;2022-12-01T09:37:34;8.20;99.90
27226;DHT22;14732;51.074;3.788;2022-12-01T09:40:00;7.90;99.90
27226;DHT22;14732;51.074;3.788;2022-12-01T09:42:25;7.60;99.90
27226;DHT22;14732;51.074;3.788;2022-12-01T09:44:55;7.30;99.90
27226;DHT22;14732;51.074;3.788;2022-12-01T09:47:32;7.30;99.90
27226;DHT22;14732;51.074;3.788;2022-12-01T09:52:51;7.60;99.90
27226;DHT22;14732;51.074;3.788;2022-12-01T09:55:20;7.80;99.90
27226;DHT22;14732;51.074;3.788;2022-12-01T09:57:47;8.00;99.90
27226;DHT22;14732;51.074;3.788;2022-12-01T10:00:25;8.00;99.90
27226;DHT22;14732;51.074;3.788;2022-12-01T10:05:52;7.90;99.90
27226;DHT22;14732;51.074;3.788;2022-12-01T10:08:23;7.70;99.90
27226;DHT22;14732;51.074;3.788;2022-12-01T10:10:51;7.70;99.90
27226;DHT22;14732;51.074;3.788;2022-12-01T10:13:26;8.00;99.90
27226;DHT22;14732;51.074;3.788;2022-12-01T10:18:33;8.20;99.90
27226;DHT22;14732;51.074;3.788;2022-12-01T10:26:53;8.00;99.90
27226;DHT22;14732;51.074;3.788;2022-12-01T10:31:55;7.90;99.90
27226;DHT22;14732;51.074;3.788;2022-12-01T10:34:42;8.00;99.90
27226;DHT22;14732;51.074;3.788;2022-12-01T10:37:23;7.90;99.90
27226;DHT22;14732;51.074;3.788;2022-12-01T10:39:51;8.10;99.90
27226;DHT22;14732;51.074;3.788;2022-12-01T10:42:41;8.10;99.90
27226;DHT22;14732;51.074;3.788;2022-12-01T10:45:25;8.00;99.90
27226;DHT22;14732;51.074;3.788;2022-12-01T10:48:20;8.20;99.90
27226;DHT22;14732;51.074;3.788;2022-12-01T10:50:54;8.00;99.90
27226;DHT22;14732;51.074;3.788;2022-12-01T10:53:27;7.90;99.90
27226;DHT22;14732;51.074;3.788;2022-12-01T10:56:14;8.10;99.90
27226;DHT22;14732;51.074;3.788;2022-12-01T10:58:51;8.20;99.90
27226;DHT22;14732;51.074;3.788;2022-12-01T11:01:26;8.10;99.90
27226;DHT22;14732;51.074;3.788;2022-12-01T11:03:59;8.10;99.90
27226;DHT22;14732;51.074;3.788;2022-12-01T11:06:28;8.20;99.90
27226;DHT22;14732;51.074;3.788;2022-12-01T11:09:03;8.30;99.90
27226;DHT22;14732;51.074;3.788;2022-12-01T11:11:38;8.30;99.90
27226;DHT22;14732;51.074;3.788;2022-12-01T11:14:38;8.40;99.90
27226;DHT22;14732;51.074;3.788;2022-12-01T11:17:24;8.50;99.90
27226;DHT22;14732;51.074;3.788;2022-12-01T11:19:50;8.30;99.90
27226;DHT22;14732;51.074;3.788;2022-12-01T11:22:20;8.10;99.90
27226;DHT22;14732;51.074;3.788;2022-12-01T11:24:57;7.70;99.90
27226;DHT22;14732;51.074;3.788;2022-12-01T11:27:25;7.80;99.90
27226;DHT22;14732;51.074;3.788;2022-12-01T11:29:55;7.80;99.90
27226;DHT22;14732;51.074;3.788;2022-12-01T11:32:25;7.80;99.90
27226;DHT22;14732;51.074;3.788;2022-12-01T11:37:21;8.00;99.90
27226;DHT22;14732;51.074;3.788;2022-12-01T11:39:49;8.10;99.90
27226;DHT22;14732;51.074;3.788;2022-12-01T11:42:25;8.10;99.90
27226;DHT22;14732;51.074;3.788;2022-12-01T11:45:04;8.30;99.90
27226;DHT22;14732;51.074;3.788;2022-12-01T11:47:30;8.40;99.90
27226;DHT22;14732;51.074;3.788;2022-12-01T11:49:57;8.50;99.90
27226;DHT22;14732;51.074;3.788;2022-12-01T11:52:27;8.50;99.90
27226;DHT22;14732;51.074;3.788;2022-12-01T11:57:44;8.10;99.90
27226;DHT22;14732;51.074;3.788;2022-12-01T12:03:18;8.10;99.90
27226;DHT22;14732;51.074;3.788;2022-12-01T12:11:20;8.00;99.90
27226;DHT22;14732;51.074;3.788;2022-12-01T12:16:47;7.90;99.90
27226;DHT22;14732;51.074;3.788;2022-12-01T12:39:18;8.20;99.90
27226;DHT22;14732;51.074;3.788;2022-12-01T12:41:51;7.90;99.90
27226;DHT22;14732;51.074;3.788;2022-12-01T12:49:43;8.40;99.90
27226;DHT22;14732;51.074;3.788;2022-12-01T12:52:24;8.60;99.90
27226;DHT22;14732;51.074;3.788;2022-12-01T12:54:57;8.30;99.90
27226;DHT22;14732;51.074;3.788;2022-12-01T12:57:37;8.40;99.90
27226;DHT22;14732;51.074;3.788;2022-12-01T13:00:05;8.50;99.90
27226;DHT22;14732;51.074;3.788;2022-12-01T13:02:41;8.30;99.90
27226;DHT22;14732;51.074;3.788;2022-12-01T13:05:32;8.30;99.90
27226;DHT22;14732;51.074;3.788;2022-12-01T13:08:02;8.30;99.90
27226;DHT22;14732;51.074;3.788;2022-12-01T13:10:48;8.30;99.90
27226;DHT22;14732;51.074;3.788;2022-12-01T13:15:51;8.60;99.90
27226;DHT22;14732;51.074;3.788;2022-12-01T13:18:31;8.80;99.90
27226;DHT22;14732;51.074;3.788;2022-12-01T13:21:01;8.80;99.90
27226;DHT22;14732;51.074;3.788;2022-12-01T13:23:28;8.70;99.90
27226;DHT22;14732;51.074;3.788;2022-12-01T13:25:56;8.80;99.90
27226;DHT22;14732;51.074;3.788;2022-12-01T13:28:26;8.80;99.90
27226;DHT22;14732;51.074;3.788;2022-12-01T13:31:05;8.80;99.90
27226;DHT22;14732;51.074;3.788;2022-12-01T13:33:33;8.60;99.90
27226;DHT22;14732;51.074;3.788;2022-12-01T13:36:00;8.60;99.90
27226;DHT22;14732;51.074;3.788;2022-12-01T13:38:30;8.70;99.90
27226;DHT22;14732;51.074;3.788;2022-12-01T13:44:02;8.60;99.90
27226;DHT22;14732;51.074;3.788;2022-12-01T13:49:43;8.70;99.90
27226;DHT22;14732;51.074;3.788;2022-12-01T14:00:38;9.10;99.90
27226;DHT22;14732;51.074;3.788;2022-12-01T14:08:27;8.90;99.90
27226;DHT22;14732;51.074;3.788;2022-12-01T14:13:24;8.90;99.90
27226;DHT22;14732;51.074;3.788;2022-12-01T14:15:59;8.70;99.90
27226;DHT22;14732;51.074;3.788;2022-12-01T14:18:30;8.60;99.90
27226;DHT22;14732;51.074;3.788;2022-12-01T14:20:58;8.60;99.90
27226;DHT22;14732;51.074;3.788;2022-12-01T14:24:14;8.80;99.90
27226;DHT22;14732;51.074;3.788;2022-12-01T14:26:21;8.90;99.90
27226;DHT22;14732;51.074;3.788;2022-12-01T14:34:06;8.70;99.90
27226;DHT22;14732;51.074;3.788;2022-12-01T14:36:41;8.80;99.90
27226;DHT22;14732;51.074;3.788;2022-12-01T14:39:36;8.60;99.90
27226;DHT22;14732;51.074;3.788;2022-12-01T14:42:20;8.60;99.90
27226;DHT22;14732;51.074;3.788;2022-12-01T14:45:12;8.40;99.90
27226;DHT22;14732;51.074;3.788;2022-12-01T14:48:02;8.40;99.90
27226;DHT22;14732;51.074;3.788;2022-12-01T14:56:12;8.10;99.90
27226;DHT22;14732;51.074;3.788;2022-12-01T14:58:37;8.00;99.90
27226;DHT22;14732;51.074;3.788;2022-12-01T15:01:10;7.90;99.90
27226;DHT22;14732;51.074;3.788;2022-12-01T15:03:46;7.80;99.90
27226;DHT22;14732;51.074;3.788;2022-12-01T15:06:17;7.80;99.90
27226;DHT22;14732;51.074;3.788;2022-12-01T15:08:44;7.70;99.90
27226;DHT22;14732;51.074;3.788;2022-12-01T15:11:22;7.80;99.90
27226;DHT22;14732;51.074;3.788;2022-12-01T15:13:50;7.70;99.90
27226;DHT22;14732;51.074;3.788;2022-12-01T15:16:19;7.70;99.90
27226;DHT22;14732;51.074;3.788;2022-12-01T15:18:45;7.70;99.90
27226;DHT22;14732;51.074;3.788;2022-12-01T15:24:00;7.60;99.90
27226;DHT22;14732;51.074;3.788;2022-12-01T15:26:32;7.60;99.90
27226;DHT22;14732;51.074;3.788;2022-12-01T15:29:15;7.50;99.90
27226;DHT22;14732;51.074;3.788;2022-12-01T15:31:43;7.40;99.90
27226;DHT22;14732;51.074;3.788;2022-12-01T15:34:15;7.40;99.90
27226;DHT22;14732;51.074;3.788;2022-12-01T15:36:42;7.20;99.90
27226;DHT22;14732;51.074;3.788;2022-12-01T15:39:14;7.30;99.90
27226;DHT22;14732;51.074;3.788;2022-12-01T15:41:42;7.20;99.90
27226;DHT22;14732;51.074;3.788;2022-12-01T15:46:52;7.30;99.90
27226;DHT22;14732;51.074;3.788;2022-12-01T15:49:27;7.30;99.90
27226;DHT22;14732;51.074;3.788;2022-12-01T15:52:03;7.30;99.90
27226;DHT22;14732;51.074;3.788;2022-12-01T15:54:29;7.30;99.90
27226;DHT22;14732;51.074;3.788;2022-12-01T15:56:57;7.20;99.90
27226;DHT22;14732;51.074;3.788;2022-12-01T15:59:35;7.10;99.90
27226;DHT22;14732;51.074;3.788;2022-12-01T16:04:45;7.00;99.90
27226;DHT22;14732;51.074;3.788;2022-12-01T16:07:12;7.10;99.90
27226;DHT22;14732;51.074;3.788;2022-12-01T16:17:46;6.90;99.90
27226;DHT22;14732;51.074;3.788;2022-12-01T16:20:24;6.90;99.90
27226;DHT22;14732;51.074;3.788;2022-12-01T16:23:00;6.80;99.90
27226;DHT22;14732;51.074;3.788;2022-12-01T16:25:39;6.70;99.90
27226;DHT22;14732;51.074;3.788;2022-12-01T16:28:31;6.60;99.90
27226;DHT22;14732;51.074;3.788;2022-12-01T16:31:00;6.60;99.90
27226;DHT22;14732;51.074;3.788;2022-12-01T16:33:27;6.60;99.90
27226;DHT22;14732;51.074;3.788;2022-12-01T16:35:53;6.60;99.90
27226;DHT22;14732;51.074;3.788;2022-12-01T16:38:21;6.60;99.90
27226;DHT22;14732;51.074;3.788;2022-12-01T16:40:49;6.60;99.90
27226;DHT22;14732;51.074;3.788;2022-12-01T16:43:20;6.60;99.90
27226;DHT22;14732;51.074;3.788;2022-12-01T16:45:47;6.50;99.90
27226;DHT22;14732;51.074;3.788;2022-12-01T16:48:19;6.40;99.90
27226;DHT22;14732;51.074;3.788;2022-12-01T16:50:46;6.40;99.90
27226;DHT22;14732;51.074;3.788;2022-12-01T16:53:12;6.40;99.90
27226;DHT22;14732;51.074;3.788;2022-12-01T16:55:50;6.40;99.90
27226;DHT22;14732;51.074;3.788;2022-12-01T16:58:16;6.40;99.90
27226;DHT22;14732;51.074;3.788;2022-12-01T17:00:42;6.40;99.90
27226;DHT22;14732;51.074;3.788;2022-12-01T17:03:10;6.30;99.90
27226;DHT22;14732;51.074;3.788;2022-12-01T17:05:36;6.30;99.90
27226;DHT22;14732;51.074;3.788;2022-12-01T17:08:03;6.20;99.90
27226;DHT22;14732;51.074;3.788;2022-12-01T17:10:29;6.20;99.90
27226;DHT22;14732;51.074;3.788;2022-12-01T17:12:54;6.30;99.90
27226;DHT22;14732;51.074;3.788;2022-12-01T17:15:20;6.30;99.90
27226;DHT22;14732;51.074;3.788;2022-12-01T17:17:46;6.30;99.90
27226;DHT22;14732;51.074;3.788;2022-12-01T17:20:12;6.30;99.90
27226;DHT22;14732;51.074;3.788;2022-12-01T17:22:38;6.30;99.90
27226;DHT22;14732;51.074;3.788;2022-12-01T17:25:04;6.30;99.90
27226;DHT22;14732;51.074;3.788;2022-12-01T17:27:31;6.30;99.90
27226;DHT22;14732;51.074;3.788;2022-12-01T17:29:58;6.30;99.90
27226;DHT22;14732;51.074;3.788;2022-12-01T17:32:24;6.30;99.90
27226;DHT22;14732;51.074;3.788;2022-12-01T17:34:50;6.30;99.90
27226;DHT22;14732;51.074;3.788;2022-12-01T17:37:16;6.20;99.90
27226;DHT22;14732;51.074;3.788;2022-12-01T17:39:42;6.20;99.90
27226;DHT22;14732;51.074;3.788;2022-12-01T17:42:07;6.30;99.90
27226;DHT22;14732;51.074;3.788;2022-12-01T17:44:33;6.20;99.90
27226;DHT22;14732;51.074;3.788;2022-12-01T17:46:59;6.20;99.90
27226;DHT22;14732;51.074;3.788;2022-12-01T17:49:25;6.20;99.90
27226;DHT22;14732;51.074;3.788;2022-12-01T17:51:50;6.10;99.90
27226;DHT22;14732;51.074;3.788;2022-12-01T17:54:16;6.10;99.90
27226;DHT22;14732;51.074;3.788;2022-12-01T17:56:42;6.10;99.90
27226;DHT22;14732;51.074;3.788;2022-12-01T17:59:08;6.10;99.90
27226;DHT22;14732;51.074;3.788;2022-12-01T18:01:33;6.10;99.90
27226;DHT22;14732;51.074;3.788;2022-12-01T18:03:59;6.00;99.90
27226;DHT22;14732;51.074;3.788;2022-12-01T18:06:25;6.00;99.90
27226;DHT22;14732;51.074;3.788;2022-12-01T18:08:51;5.90;99.90
27226;DHT22;14732;51.074;3.788;2022-12-01T18:11:17;5.90;99.90
27226;DHT22;14732;51.074;3.788;2022-12-01T18:13:49;5.80;99.90
27226;DHT22;14732;51.074;3.788;2022-12-01T18:16:17;5.90;99.90
27226;DHT22;14732;51.074;3.788;2022-12-01T18:18:43;5.80;99.90
27226;DHT22;14732;51.074;3.788;2022-12-01T18:21:11;5.80;99.90
27226;DHT22;14732;51.074;3.788;2022-12-01T18:23:37;5.70;99.90
27226;DHT22;14732;51.074;3.788;2022-12-01T18:26:10;5.70;99.90
27226;DHT22;14732;51.074;3.788;2022-12-01T18:28:36;5.60;99.90
27226;DHT22;14732;51.074;3.788;2022-12-01T18:31:08;5.60;99.90
27226;DHT22;14732;51.074;3.788;2022-12-01T18:33:36;5.50;99.90
27226;DHT22;14732;51.074;3.788;2022-12-01T18:36:02;5.50;99.90